Time;durP1;ratioP1;P1;durP2;ratioP2;P2;SDS_P1;SDS_P2;PMS_P1;PMS_P2;Temp;Humidity;BMP_temperature;BMP_pressure;BME280_temperature;BME280_humidity;BME280_pressure;Samples;Min_cycle;Max_cycle;Signal;HPM_P1;HPM_P2
2022/08/12 00:43:18;;;;;;;8.88;4.60;;;;;;;18.79;98.15;100418.59;5116216;28;20036;-79
2022/08/12 00:48:31;;;;;;;9.77;4.15;;;;;;;18.61;100.00;100367.13;5102884;28;20039;-81
2022/08/12 00:51:01;;;;;;;8.82;4.50;;;;;;;18.62;100.00;100379.81;5115866;27;20531;-80
2022/08/12 00:53:29;;;;;;;9.23;5.30;;;;;;;18.60;100.00;100402.81;5115583;28;20035;-80
2022/08/12 00:55:59;;;;;;;11.95;4.78;;;;;;;18.60;100.00;100406.41;5115937;28;20047;-80
2022/08/12 00:58:28;;;;;;;9.98;5.00;;;;;;;18.57;100.00;100397.59;5116087;28;20113;-80
2022/08/12 01:01:00;;;;;;;9.65;4.65;;;;;;;18.48;100.00;100402.81;5115337;28;20479;-80
2022/08/12 01:11:27;;;;;;;8.50;4.70;;;;;;;18.54;100.00;100418.72;5117318;28;20051;-82
2022/08/12 01:11:51;;;;;;;13.75;5.70;;;;;;;18.43;100.00;100434.28;5115899;28;20502;-81
2022/08/12 01:14:22;;;;;;;9.90;5.20;;;;;;;18.46;100.00;100420.34;5116685;28;20048;-79
2022/08/12 01:16:50;;;;;;;11.30;5.25;;;;;;;18.37;100.00;100413.75;5116729;28;20118;-80
2022/08/12 01:19:18;;;;;;;10.93;4.93;;;;;;;18.35;100.00;100404.78;5114441;28;20043;-79
2022/08/12 01:22:14;;;;;;;11.23;5.30;;;;;;;18.33;100.00;100428.66;5115244;28;20409;-80
2022/08/12 01:24:54;;;;;;;12.83;5.13;;;;;;;18.40;100.00;100427.16;5114230;27;20723;-80
2022/08/12 01:27:24;;;;;;;9.90;5.15;;;;;;;18.30;100.00;100412.50;5114946;27;20847;-80
2022/08/12 01:29:53;;;;;;;9.40;5.10;;;;;;;18.34;100.00;100422.19;5115205;28;20050;-79
2022/08/12 01:32:22;;;;;;;11.73;5.10;;;;;;;18.29;100.00;100424.44;5114595;27;20050;-80
2022/08/12 01:34:58;;;;;;;10.68;5.18;;;;;;;18.33;100.00;100423.19;5114937;28;20047;-80
2022/08/12 01:37:26;;;;;;;9.57;5.30;;;;;;;18.34;100.00;100411.25;5114656;28;20072;-80
2022/08/12 01:39:59;;;;;;;10.85;5.30;;;;;;;18.32;100.00;100408.63;5114642;28;20404;-80
2022/08/12 01:42:28;;;;;;;10.38;5.40;;;;;;;18.29;100.00;100386.16;5115735;28;20068;-80
2022/08/12 01:44:56;;;;;;;12.75;5.78;;;;;;;18.31;100.00;100365.03;5115088;27;20043;-80
2022/08/12 01:47:33;;;;;;;11.48;5.75;;;;;;;18.27;100.00;100371.75;5114604;28;20048;-80
2022/08/12 01:50:09;;;;;;;11.88;4.95;;;;;;;18.21;100.00;100364.88;5114400;28;20561;-80
2022/08/12 01:52:44;;;;;;;11.25;5.25;;;;;;;18.26;100.00;100378.19;5111485;28;20043;-79
2022/08/12 01:55:16;;;;;;;12.98;5.93;;;;;;;18.22;100.00;100366.63;5115265;27;20050;-82
2022/08/12 01:57:48;;;;;;;11.63;5.68;;;;;;;18.19;100.00;100386.91;5115312;27;20101;-79
2022/08/12 02:00:18;;;;;;;13.15;5.82;;;;;;;18.18;100.00;100414.34;5114057;28;20049;-79
2022/08/12 02:02:58;;;;;;;12.50;5.70;;;;;;;18.20;100.00;100404.16;5093953;28;20051;-80
2022/08/12 02:11:21;;;;;;;11.90;5.65;;;;;;;18.11;100.00;100405.75;5113823;28;20039;-80
2022/08/12 02:14:13;;;;;;;9.75;5.35;;;;;;;18.07;100.00;100399.69;5114360;27;20058;-80
2022/08/12 02:16:50;;;;;;;9.82;5.53;;;;;;;18.05;100.00;100403.50;5107654;28;20404;-80
2022/08/12 02:19:29;;;;;;;12.95;6.20;;;;;;;17.98;100.00;100413.16;5114052;28;20044;-80
2022/08/12 02:22:04;;;;;;;11.43;5.80;;;;;;;18.07;100.00;100405.13;5114776;28;20405;-80
2022/08/12 02:24:33;;;;;;;11.60;5.97;;;;;;;18.02;100.00;100403.75;5114685;27;20071;-80
2022/08/12 02:27:03;;;;;;;9.98;5.70;;;;;;;17.98;100.00;100413.16;5113959;28;20044;-80
2022/08/12 02:29:30;;;;;;;9.82;5.68;;;;;;;17.93;100.00;100411.66;5113271;27;20043;-80
2022/08/12 02:31:58;;;;;;;10.60;5.95;;;;;;;17.95;100.00;100396.00;5113855;28;20070;-80
2022/08/12 02:34:26;;;;;;;11.82;5.57;;;;;;;17.98;100.00;100396.75;5113106;28;20492;-81
2022/08/12 02:36:54;;;;;;;12.98;6.43;;;;;;;18.01;100.00;100404.75;5113867;28;20408;-79
2022/08/12 02:39:25;;;;;;;12.02;6.28;;;;;;;17.91;100.00;100408.19;5113916;27;20043;-79
2022/08/12 02:41:55;;;;;;;11.45;6.05;;;;;;;17.98;100.00;100408.56;5113420;28;20035;-80
2022/08/12 02:44:24;;;;;;;11.50;5.80;;;;;;;18.00;100.00;100395.66;5112254;28;20069;-79
2022/08/12 02:46:55;;;;;;;11.98;5.95;;;;;;;17.98;100.00;100400.38;5112806;28;20054;-80
2022/08/12 02:49:26;;;;;;;11.00;6.10;;;;;;;17.95;100.00;100397.88;5115586;28;20047;-79
2022/08/12 02:51:53;;;;;;;10.70;5.70;;;;;;;17.93;100.00;100408.91;5113874;28;20420;-78
2022/08/12 02:54:22;;;;;;;10.20;5.80;;;;;;;17.90;100.00;100416.47;5113902;27;20044;-78
2022/08/12 02:56:50;;;;;;;11.52;5.65;;;;;;;17.92;100.00;100423.56;5113624;28;20044;-79
2022/08/12 02:59:20;;;;;;;10.20;5.97;;;;;;;17.87;100.00;100417.59;5112802;28;20054;-79
2022/08/12 03:01:52;;;;;;;11.02;5.57;;;;;;;17.88;100.00;100411.16;5112907;28;20044;-79
2022/08/12 03:04:26;;;;;;;12.52;6.00;;;;;;;17.88;100.00;100413.00;5114153;27;20051;-79
2022/08/12 03:07:13;;;;;;;11.80;6.20;;;;;;;17.88;100.00;100413.88;5114957;27;20039;-79
2022/08/12 03:09:49;;;;;;;12.88;5.95;;;;;;;17.79;100.00;100415.47;5114536;28;20100;-79
2022/08/12 03:12:16;;;;;;;;;;;;;;;17.72;100.00;100402.38;5114793;28;20074;-79
2022/08/12 03:14:44;;;;;;;11.32;5.80;;;;;;;17.79;100.00;100403.69;5113166;28;19927;-79
2022/08/12 03:17:17;;;;;;;12.23;5.78;;;;;;;17.79;100.00;100399.06;5113182;28;20441;-79
2022/08/12 03:19:44;;;;;;;13.88;8.57;;;;;;;17.75;100.00;100402.19;5113822;28;20105;-79
2022/08/12 03:22:15;;;;;;;12.23;8.02;;;;;;;17.75;100.00;100413.09;5113002;28;20039;-79
2022/08/12 03:24:45;;;;;;;11.93;6.95;;;;;;;17.70;100.00;100408.00;5113219;28;20400;-79
2022/08/12 03:27:14;;;;;;;10.32;6.13;;;;;;;17.70;100.00;100420.75;5112835;28;20044;-79
2022/08/12 03:29:45;;;;;;;9.63;5.97;;;;;;;17.60;100.00;100416.00;5113081;28;20062;-79
2022/08/12 03:32:14;;;;;;;12.07;6.28;;;;;;;17.53;100.00;100420.22;5114857;27;20510;-79
2022/08/12 03:34:44;;;;;;;9.60;5.97;;;;;;;17.61;100.00;100415.03;5113015;28;20055;-79
2022/08/12 03:37:11;;;;;;;11.43;6.00;;;;;;;17.61;100.00;100412.28;5113352;28;20487;-79
2022/08/12 03:39:43;;;;;;;10.98;6.25;;;;;;;17.70;100.00;100420.75;5113338;28;20097;-79
2022/08/12 03:42:21;;;;;;;10.10;6.35;;;;;;;17.58;100.00;100423.47;5114567;27;20048;-80
2022/08/12 04:01:32;;;;;;;13.25;6.70;;;;;;;17.58;100.00;100449.91;5118320;28;20044;-80
2022/08/12 04:04:02;;;;;;;15.38;8.25;;;;;;;17.51;100.00;100444.03;5116265;28;20035;-79
2022/08/12 04:06:30;;;;;;;16.73;10.70;;;;;;;17.49;100.00;100446.00;5117274;28;20138;-79
2022/08/12 04:08:59;;;;;;;12.65;6.50;;;;;;;17.55;100.00;100448.28;5116558;27;20044;-78
2022/08/12 04:14:26;;;;;;;10.80;6.30;;;;;;;17.57;100.00;100439.97;5075081;28;20059;-80
2022/08/12 04:16:54;;;;;;;14.20;6.57;;;;;;;17.57;100.00;100431.78;5076562;28;20525;-80
2022/08/12 04:19:24;;;;;;;11.23;6.82;;;;;;;17.51;100.00;100428.50;5077501;28;20173;-80
2022/08/12 04:21:52;;;;;;;12.30;6.13;;;;;;;17.51;100.00;100433.97;5086609;28;20063;-81
2022/08/12 04:24:20;;;;;;;10.30;6.38;;;;;;;17.48;100.00;100438.81;5073782;28;20399;-80
2022/08/12 04:26:48;;;;;;;11.80;6.32;;;;;;;17.45;100.00;100439.03;5073292;28;20604;-79
2022/08/12 04:29:15;;;;;;;12.30;6.25;;;;;;;17.46;100.00;100435.31;5073807;28;20079;-79
2022/08/12 04:31:43;;;;;;;12.23;6.95;;;;;;;17.52;100.00;100456.69;5073774;28;20059;-79
2022/08/12 04:34:12;;;;;;;10.50;5.88;;;;;;;17.33;100.00;100452.63;5080941;28;20062;-79
2022/08/12 04:36:41;;;;;;;10.55;6.20;;;;;;;17.48;100.00;100452.47;5089125;28;20411;-80
2022/08/12 04:39:11;;;;;;;10.57;6.22;;;;;;;17.41;100.00;100457.50;5073538;28;20105;-79
2022/08/12 04:41:39;;;;;;;10.90;5.88;;;;;;;17.52;100.00;100459.44;5073066;28;20087;-80
2022/08/12 04:44:08;;;;;;;11.43;6.50;;;;;;;17.60;100.00;100458.84;5073417;28;20052;-80
2022/08/12 04:46:35;;;;;;;11.75;6.40;;;;;;;17.58;100.00;100467.16;5073328;28;20406;-80
2022/08/12 04:49:04;;;;;;;12.65;6.68;;;;;;;17.61;100.00;100460.59;5100242;28;20142;-80
2022/08/12 04:51:32;;;;;;;11.68;6.38;;;;;;;17.77;100.00;100461.16;5115524;28;20551;-80
2022/08/12 04:54:01;;;;;;;14.00;8.75;;;;;;;17.78;100.00;100451.97;5115676;28;20048;-80
2022/08/12 04:56:29;;;;;;;11.38;7.35;;;;;;;17.85;100.00;100452.38;5115716;27;20043;-81
2022/08/12 04:58:57;;;;;;;12.07;6.72;;;;;;;17.85;100.00;100446.91;5115444;28;20047;-79
2022/08/12 05:01:26;;;;;;;12.05;6.68;;;;;;;17.92;100.00;100445.44;5115337;28;20043;-80
2022/08/12 05:03:55;;;;;;;12.35;6.78;;;;;;;17.91;100.00;100446.44;5115633;28;20048;-81
2022/08/12 05:06:22;;;;;;;11.38;6.45;;;;;;;18.02;100.00;100442.00;5113689;28;20044;-78
2022/08/12 05:08:50;;;;;;;12.43;6.85;;;;;;;18.06;100.00;100446.25;5111199;28;20093;-79
2022/08/12 05:11:22;;;;;;;10.60;6.70;;;;;;;18.13;100.00;100455.69;5111142;28;20075;-80
2022/08/12 05:13:51;;;;;;;13.18;6.90;;;;;;;18.26;100.00;100443.81;5108694;28;20055;-79
2022/08/12 05:16:18;;;;;;;11.32;7.07;;;;;;;18.25;100.00;100437.47;5111994;28;20055;-79
2022/08/12 05:18:46;;;;;;;12.05;7.05;;;;;;;18.28;100.00;100439.94;5111340;28;20047;-80
2022/08/12 05:21:13;;;;;;;9.98;6.18;;;;;;;18.30;100.00;100437.97;5112063;28;20055;-79
2022/08/12 05:23:41;;;;;;;15.05;7.30;;;;;;;18.35;100.00;100437.59;5111178;28;20116;-81
2022/08/12 05:26:09;;;;;;;10.40;6.57;;;;;;;18.37;100.00;100432.88;5111524;28;20047;-80
2022/08/12 05:28:38;;;;;;;11.35;6.13;;;;;;;18.33;100.00;100439.59;5111444;27;20492;-77
2022/08/12 05:31:06;;;;;;;11.10;6.35;;;;;;;18.45;100.00;100429.53;5111282;27;20567;-79
2022/08/12 05:33:36;;;;;;;13.95;8.20;;;;;;;18.44;100.00;100431.41;5110032;28;20531;-80
2022/08/12 05:36:07;;;;;;;10.63;6.00;;;;;;;18.58;100.00;100435.75;5110940;28;20051;-81
2022/08/12 05:41:21;;;;;;;10.48;5.00;;;;;;;18.79;100.00;100435.03;5111675;28;20036;-74
2022/08/12 05:43:51;;;;;;;10.77;5.70;;;;;;;18.77;100.00;100437.88;5111001;28;20202;-74
2022/08/12 05:46:19;;;;;;;10.30;5.57;;;;;;;18.76;100.00;100427.91;5111437;27;20055;-74
2022/08/12 05:48:48;;;;;;;9.35;5.00;;;;;;;18.92;100.00;100427.53;5109958;28;20539;-74
2022/08/12 05:51:15;;;;;;;8.57;4.78;;;;;;;19.00;100.00;100426.94;5110996;28;20051;-74
2022/08/12 05:53:43;;;;;;;8.85;4.97;;;;;;;19.04;100.00;100422.06;5110648;28;20404;-75
2022/08/12 05:56:19;;;;;;;11.15;5.32;;;;;;;19.16;100.00;100422.91;5110795;28;20047;-77
2022/08/12 05:58:47;;;;;;;10.40;5.25;;;;;;;19.18;100.00;100419.06;5110968;28;20051;-76
2022/08/12 06:01:16;;;;;;;8.93;4.75;;;;;;;19.29;100.00;100420.88;5110408;28;20051;-76
2022/08/12 06:03:44;;;;;;;12.18;5.07;;;;;;;19.35;100.00;100420.34;5109533;28;20040;-76
2022/08/12 06:06:11;;;;;;;8.70;4.47;;;;;;;19.33;100.00;100421.50;5096473;27;20067;-76
2022/08/12 06:08:46;;;;;;;10.85;5.05;;;;;;;19.34;100.00;100428.72;5094770;28;20052;-76
2022/08/12 06:11:14;;;;;;;10.80;5.20;;;;;;;19.38;100.00;100433.81;5110425;28;20403;-76
2022/08/12 06:13:43;;;;;;;9.52;4.78;;;;;;;19.39;100.00;100426.47;5110944;28;20039;-76
2022/08/12 06:16:11;;;;;;;10.18;4.85;;;;;;;19.31;100.00;100427.09;5104867;28;20047;-80
2022/08/12 06:18:40;;;;;;;10.38;4.97;;;;;;;19.39;100.00;100432.81;5090391;28;20051;-78
2022/08/12 06:21:09;;;;;;;7.95;4.55;;;;;;;19.55;100.00;100420.56;5099101;28;20062;-84
2022/08/12 06:23:37;;;;;;;9.65;4.80;;;;;;;19.59;100.00;100421.19;5109950;28;20516;-77
2022/08/12 06:26:06;;;;;;;10.10;5.20;;;;;;;19.60;100.00;100437.47;5110875;28;20088;-79
2022/08/12 06:28:34;;;;;;;9.05;4.72;;;;;;;19.62;100.00;100438.19;5110481;28;20056;-78
2022/08/12 06:31:02;;;;;;;10.20;4.72;;;;;;;19.62;100.00;100438.19;5110435;28;20059;-81
2022/08/12 06:33:29;;;;;;;10.15;5.32;;;;;;;19.66;100.00;100436.06;5110089;28;20047;-86
2022/08/12 06:36:00;;;;;;;11.02;4.68;;;;;;;19.66;100.00;100428.72;5106958;28;20047;-85
2022/08/12 06:38:29;;;;;;;8.68;4.50;;;;;;;19.71;100.00;100428.34;5110926;28;20121;-82
2022/08/12 06:43:44;;;;;;;10.65;4.70;;;;;;;19.84;100.00;100434.47;5091428;28;20090;-81
2022/08/12 06:46:12;;;;;;;8.95;4.90;;;;;;;19.89;100.00;100428.63;5094108;28;20047;-82
2022/08/12 06:48:42;;;;;;;10.48;4.95;;;;;;;19.94;100.00;100430.97;5106363;28;20125;-82
2022/08/12 06:51:11;;;;;;;10.10;5.00;;;;;;;20.03;100.00;100432.06;5109482;28;20063;-78
2022/08/12 06:53:42;;;;;;;10.30;4.40;;;;;;;20.03;100.00;100429.31;5107233;27;20488;-81
2022/08/12 06:56:10;;;;;;;8.65;4.63;;;;;;;20.01;100.00;100434.94;5110644;28;20051;-81
2022/08/12 06:58:38;;;;;;;10.93;4.85;;;;;;;19.97;100.00;100431.59;5109934;27;20043;-80
2022/08/12 07:01:07;;;;;;;8.95;4.53;;;;;;;19.93;100.00;100435.59;5110503;27;20047;-83
2022/08/12 07:03:35;;;;;;;14.65;4.70;;;;;;;19.97;100.00;100444.41;5109320;28;20055;-78
2022/08/12 07:06:04;;;;;;;8.77;4.38;;;;;;;19.88;100.00;100439.69;5110778;28;20044;-79
2022/08/12 07:08:35;;;;;;;8.15;4.30;;;;;;;19.87;100.00;100437.97;5110865;28;20050;-82
2022/08/12 07:11:04;;;;;;;9.32;4.70;;;;;;;19.87;100.00;100443.44;5110641;28;20557;-80
2022/08/12 07:13:37;;;;;;;10.18;4.55;;;;;;;19.98;100.00;100447.03;5110531;28;20035;-76
2022/08/12 07:16:05;;;;;;;9.15;4.65;;;;;;;20.05;100.00;100443.75;5106542;28;20043;-76
2022/08/12 07:18:33;;;;;;;8.93;4.38;;;;;;;20.26;100.00;100447.38;5107609;27;20047;-76
2022/08/12 07:21:02;;;;;;;8.75;4.55;;;;;;;20.35;100.00;100442.06;5104583;28;20047;-78
2022/08/12 07:23:32;;;;;;;8.75;4.53;;;;;;;20.39;100.00;100435.31;5108621;28;20111;-80
2022/08/12 07:26:02;;;;;;;9.07;4.40;;;;;;;20.45;100.00;100431.16;5104183;28;20044;-79
2022/08/12 07:28:32;;;;;;;10.60;4.35;;;;;;;20.59;100.00;100429.91;5094174;28;20129;-78
2022/08/12 07:30:59;;;;;;;8.45;4.43;;;;;;;20.68;100.00;100431.84;5110713;28;20044;-76
2022/08/12 07:33:28;;;;;;;9.95;4.20;;;;;;;20.70;100.00;100436.16;5107653;28;20039;-78
2022/08/12 07:35:58;;;;;;;8.38;4.38;;;;;;;20.68;100.00;100429.09;5111688;28;20446;-76
2022/08/12 07:38:29;;;;;;;8.38;4.35;;;;;;;20.70;100.00;100432.56;5111334;27;20040;-78
2022/08/12 07:41:00;;;;;;;8.57;4.30;;;;;;;20.72;100.00;100432.41;5120034;27;20450;-81
2022/08/12 07:43:31;;;;;;;8.15;4.30;;;;;;;20.69;100.00;100436.31;5112376;28;20079;-86
2022/08/12 07:46:01;;;;;;;10.88;4.43;;;;;;;20.77;100.00;100425.53;5116448;28;20050;-86
2022/08/12 07:48:35;;;;;;;7.93;4.40;;;;;;;20.89;100.00;100428.19;5112049;27;20035;-79
2022/08/12 07:51:03;;;;;;;8.30;4.50;;;;;;;20.97;100.00;100429.22;5114471;28;20059;-82
2022/08/12 07:53:30;;;;;;;8.45;4.60;;;;;;;21.02;100.00;100427.94;5113552;27;20040;-83
2022/08/12 07:55:58;;;;;;;8.00;4.10;;;;;;;21.09;100.00;100416.25;5112271;28;20071;-81
2022/08/12 07:58:26;;;;;;;9.73;4.28;;;;;;;21.21;100.00;100425.25;5112801;28;20044;-81
2022/08/12 08:00:56;;;;;;;10.43;4.57;;;;;;;21.27;100.00;100416.44;5111737;27;20051;-83
2022/08/12 08:03:24;;;;;;;9.48;4.30;;;;;;;21.31;100.00;100416.16;5114454;27;20039;-82
2022/08/12 08:05:52;;;;;;;7.72;4.20;;;;;;;21.42;100.00;100424.25;5111346;28;20040;-82
2022/08/12 08:08:23;;;;;;;10.80;4.40;;;;;;;21.42;100.00;100427.00;5110465;27;20398;-80
2022/08/12 08:10:52;;;;;;;8.73;4.40;;;;;;;21.45;100.00;100431.34;5114386;28;20047;-80
2022/08/12 08:13:39;;;;;;;11.30;4.88;;;;;;;21.44;100.00;100429.63;5113682;28;20048;-81
2022/08/12 08:16:08;;;;;;;8.45;4.45;;;;;;;21.46;100.00;100444.09;5115248;27;20492;-82
2022/08/12 08:18:37;;;;;;;9.23;4.68;;;;;;;21.39;100.00;100436.38;5115986;27;20047;-78
2022/08/12 08:21:05;;;;;;;8.52;4.60;;;;;;;21.32;100.00;100440.72;5114576;27;20499;-79
2022/08/12 08:26:21;;;;;;;9.20;5.13;;;;;;;21.25;100.00;100439.56;5110291;28;20043;-82
2022/08/12 08:28:49;;;;;;;12.13;4.95;;;;;;;21.16;100.00;100438.50;5116826;27;20394;-79
2022/08/12 08:31:18;;;;;;;10.73;5.45;;;;;;;21.15;100.00;100436.78;5114290;27;20044;-78
2022/08/12 08:33:45;;;;;;;10.98;4.90;;;;;;;21.16;100.00;100445.91;5113269;28;20408;-77
2022/08/12 08:36:13;;;;;;;10.20;4.97;;;;;;;21.15;100.00;100438.66;5113316;28;20040;-77
2022/08/12 08:38:44;;;;;;;8.70;4.57;;;;;;;21.12;100.00;100437.94;5113425;27;20050;-80
2022/08/12 08:43:57;;;;;;;9.90;4.70;;;;;;;21.04;100.00;100446.03;5112866;27;20063;-77
2022/08/12 08:46:27;;;;;;;9.05;4.95;;;;;;;21.01;100.00;100449.06;5113771;27;20546;-77
2022/08/12 08:48:55;;;;;;;8.52;4.85;;;;;;;20.99;100.00;100451.03;5113566;28;20043;-76
2022/08/12 08:51:25;;;;;;;10.30;4.72;;;;;;;21.01;100.00;100457.28;5109355;28;20155;-76
2022/08/12 08:53:53;;;;;;;9.20;5.15;;;;;;;20.98;100.00;100463.03;5113716;28;20044;-76
2022/08/12 08:56:21;;;;;;;10.52;5.22;;;;;;;20.99;100.00;100462.03;5113671;28;20068;-76
2022/08/12 08:58:48;;;;;;;9.45;5.22;;;;;;;21.02;100.00;100477.38;5113361;28;20123;-77
2022/08/12 09:01:20;;;;;;;11.82;5.43;;;;;;;21.06;100.00;100465.97;5111258;28;20043;-76
2022/08/12 09:03:49;;;;;;;10.98;5.50;;;;;;;21.12;100.00;100468.16;5112990;28;20039;-76
2022/08/12 09:06:19;;;;;;;9.98;5.40;;;;;;;21.18;100.00;100482.31;5113676;27;20051;-75
2022/08/12 09:08:46;;;;;;;10.23;5.50;;;;;;;21.21;100.00;100476.56;5112913;28;20229;-74
2022/08/12 09:13:59;;;;;;;10.05;5.45;;;;;;;21.23;100.00;100475.41;5109670;28;20048;-74
2022/08/12 09:16:26;;;;;;;9.25;5.65;;;;;;;21.19;100.00;100487.66;5113219;27;20044;-76
2022/08/12 09:18:55;;;;;;;10.70;5.60;;;;;;;21.26;100.00;100479.75;5112347;28;20134;-75
2022/08/12 09:21:22;;;;;;;12.40;6.28;;;;;;;21.28;100.00;100472.22;5110645;28;20051;-76
2022/08/12 09:23:50;;;;;;;9.52;5.70;;;;;;;21.28;100.00;100462.13;5109134;28;20511;-75
2022/08/12 09:26:21;;;;;;;10.95;5.55;;;;;;;21.25;100.00;100467.91;5111462;27;20031;-76
2022/08/12 09:28:49;;;;;;;9.52;5.70;;;;;;;21.15;100.00;100460.66;5108106;28;20047;-75
2022/08/12 09:31:17;;;;;;;10.70;5.90;;;;;;;21.12;100.00;100459.03;5111779;28;20036;-76
2022/08/12 09:33:45;;;;;;;10.55;5.78;;;;;;;21.22;100.00;100470.94;5109164;28;20447;-75
2022/08/12 09:36:15;;;;;;;12.75;5.80;;;;;;;21.26;100.00;100466.00;5107198;28;20112;-75
2022/08/12 09:38:42;;;;;;;10.98;6.20;;;;;;;21.21;100.00;100463.72;5110986;28;20047;-75
2022/08/12 09:41:10;;;;;;;11.00;5.82;;;;;;;21.22;100.00;100464.56;5106288;27;20051;-77
2022/08/12 09:46:23;;;;;;;11.60;6.40;;;;;;;21.23;100.00;100464.44;5114426;28;20489;-76
2022/08/12 09:48:50;;;;;;;11.90;5.75;;;;;;;21.27;100.00;100467.75;5109232;28;20051;-76
2022/08/12 09:51:19;;;;;;;12.13;6.20;;;;;;;21.24;100.00;100471.66;5108556;28;20077;-77
2022/08/12 09:53:49;;;;;;;14.57;6.10;;;;;;;21.26;100.00;100468.75;5110501;27;20122;-78
2022/08/12 09:56:18;;;;;;;12.00;6.10;;;;;;;21.30;100.00;100469.34;5110478;27;20489;-76
2022/08/12 09:58:46;;;;;;;11.85;6.20;;;;;;;21.21;100.00;100463.72;5109607;27;20069;-75
2022/08/12 10:01:14;;;;;;;11.05;5.90;;;;;;;21.21;100.00;100460.97;5109690;27;20122;-75
2022/08/12 10:03:42;;;;;;;10.63;6.20;;;;;;;21.12;100.00;100457.16;5110243;27;20390;-78
2022/08/12 10:06:11;;;;;;;11.55;6.18;;;;;;;21.10;100.00;100456.44;5105749;28;20124;-77
2022/08/12 10:08:40;;;;;;;10.85;6.15;;;;;;;21.12;100.00;100454.41;5101914;27;20043;-75
2022/08/12 10:13:50;;;;;;;11.90;6.18;;;;;;;21.19;100.00;100449.22;5034392;28;20495;-81
2022/08/12 10:16:19;;;;;;;12.15;6.03;;;;;;;21.24;100.00;100452.44;5040864;28;20056;-82
2022/08/12 10:18:48;;;;;;;10.13;5.72;;;;;;;21.17;100.00;100453.13;5033263;28;20566;-77
2022/08/12 10:21:16;;;;;;;15.20;6.50;;;;;;;21.16;100.00;100454.13;5047306;28;20568;-78
2022/08/12 10:23:47;;;;;;;13.05;6.47;;;;;;;21.09;100.00;100443.72;5043861;28;20553;-77
2022/08/12 10:31:50;;;;;;;11.07;6.45;;;;;;;21.08;100.00;100454.84;5039141;28;20059;-75
2022/08/12 10:34:20;;;;;;;11.77;6.68;;;;;;;21.31;100.00;100460.97;5049308;28;20048;-78
2022/08/12 10:36:47;;;;;;;12.63;6.43;;;;;;;21.05;100.00;100455.13;5046000;28;20143;-73
2022/08/12 10:39:19;;;;;;;12.52;6.40;;;;;;;21.01;100.00;100450.91;5040087;28;20045;-73
2022/08/12 10:44:32;;;;;;;13.43;6.90;;;;;;;20.91;100.00;100467.34;5048776;28;20080;-74
2022/08/12 10:47:00;;;;;;;16.20;6.43;;;;;;;20.94;100.00;100467.06;5031867;28;20569;-74
2022/08/12 10:49:30;;;;;;;11.60;6.32;;;;;;;20.88;100.00;100457.53;5045936;28;20091;-75
2022/08/12 10:51:59;;;;;;;10.52;6.18;;;;;;;20.87;100.00;100457.66;5099842;28;20133;-74
2022/08/12 10:54:28;;;;;;;13.18;6.70;;;;;;;20.81;100.00;100459.94;5109677;27;20062;-74
2022/08/12 10:56:59;;;;;;;14.30;6.50;;;;;;;20.82;100.00;100449.84;5109024;28;20054;-75
2022/08/12 10:59:28;;;;;;;11.60;6.45;;;;;;;20.75;100.00;100459.59;5112752;27;20035;-74
2022/08/12 11:01:55;;;;;;;11.52;6.72;;;;;;;20.80;100.00;100452.72;5106175;28;20051;-74
2022/08/12 11:04:24;;;;;;;13.40;6.97;;;;;;;20.85;100.00;100460.56;5104941;28;20047;-72
2022/08/12 11:06:52;;;;;;;13.32;6.75;;;;;;;20.85;100.00;100452.31;5101390;28;20047;-74
2022/08/12 11:09:26;;;;;;;13.05;8.00;;;;;;;20.88;100.00;100460.28;5107250;28;20096;-76
2022/08/12 11:11:55;;;;;;;15.60;6.93;;;;;;;20.96;100.00;100448.56;5107897;28;20046;-75
2022/08/12 11:14:27;;;;;;;15.57;6.95;;;;;;;20.96;100.00;100445.81;5104275;28;20084;-74
2022/08/12 11:16:56;;;;;;;14.63;6.80;;;;;;;20.95;100.00;100446.84;5111471;28;20092;-78
2022/08/12 11:19:23;;;;;;;12.77;7.22;;;;;;;20.98;100.00;100452.94;5107910;27;20043;-73
2022/08/12 11:21:52;;;;;;;10.88;6.90;;;;;;;20.95;100.00;100444.97;5107757;28;20043;-79
2022/08/12 11:24:19;;;;;;;10.98;6.63;;;;;;;20.91;100.00;100437.16;5107429;28;20512;-72
2022/08/12 11:26:48;;;;;;;10.52;6.35;;;;;;;20.91;100.00;100445.38;5107726;28;20530;-74
2022/08/12 11:29:17;;;;;;;11.57;6.80;;;;;;;20.89;100.00;100440.06;5107570;28;20048;-77
2022/08/12 11:31:44;;;;;;;11.75;6.93;;;;;;;20.96;100.00;100441.22;5107000;28;20051;-78
2022/08/12 11:34:12;;;;;;;11.57;6.43;;;;;;;20.91;100.00;100439.91;5107124;28;20043;-77
2022/08/12 11:36:40;;;;;;;10.38;6.72;;;;;;;20.92;100.00;100442.50;5107567;28;20104;-78
2022/08/12 11:39:07;;;;;;;18.17;7.13;;;;;;;20.91;100.00;100432.53;5105474;28;20051;-74
2022/08/12 11:41:38;;;;;;;11.32;6.57;;;;;;;20.86;100.00;100431.22;5108182;27;20052;-75
2022/08/12 11:44:05;;;;;;;13.20;7.00;;;;;;;20.92;100.00;100419.66;5110111;28;20526;-76
2022/08/12 11:46:36;;;;;;;15.85;7.13;;;;;;;20.99;100.00;100421.72;5107478;28;20051;-72
2022/08/12 11:49:04;;;;;;;11.45;7.50;;;;;;;21.02;100.00;100422.44;5107116;28;20408;-73
2022/08/12 11:51:32;;;;;;;11.38;7.18;;;;;;;21.04;100.00;100420.44;5106525;28;20059;-72
2022/08/12 11:54:00;;;;;;;11.85;6.85;;;;;;;21.09;100.00;100416.25;5099335;28;20035;-72
2022/08/12 11:56:28;;;;;;;11.02;6.88;;;;;;;21.16;100.00;100415.69;5107569;27;20051;-72
2022/08/12 11:58:55;;;;;;;11.65;6.68;;;;;;;21.21;100.00;100408.78;5105890;28;20493;-72
2022/08/12 12:01:23;;;;;;;12.93;7.50;;;;;;;21.25;100.00;100410.22;5107913;28;20051;-73
2022/08/12 12:03:52;;;;;;;13.40;7.07;;;;;;;21.27;100.00;100410.94;5111722;28;20054;-72
2022/08/12 12:06:20;;;;;;;13.18;7.53;;;;;;;21.32;100.00;100405.00;5109285;28;20048;-76
2022/08/12 12:08:48;;;;;;;10.82;7.00;;;;;;;21.32;100.00;100405.00;5109444;28;20058;-72
2022/08/12 12:11:16;;;;;;;12.65;7.50;;;;;;;21.27;100.00;100407.31;5105134;28;20499;-73
2022/08/12 12:13:43;;;;;;;13.70;7.82;;;;;;;21.26;100.00;100405.59;5114701;28;20105;-83
2022/08/12 12:16:10;;;;;;;12.63;6.75;;;;;;;21.32;100.00;100404.16;5112170;28;20048;-75
2022/08/12 12:18:38;;;;;;;16.23;7.57;;;;;;;21.33;100.00;100406.75;5112758;27;20047;-79
2022/08/12 12:21:08;;;;;;;14.77;7.70;;;;;;;21.35;100.00;100409.38;5107565;27;20431;-78
2022/08/12 12:23:36;;;;;;;13.93;7.60;;;;;;;21.31;100.00;100413.41;5114566;28;20553;-76
2022/08/12 12:26:04;;;;;;;11.27;7.25;;;;;;;21.26;100.00;100416.56;5113065;28;20389;-74
2022/08/12 12:28:32;;;;;;;14.75;7.40;;;;;;;21.23;100.00;100411.38;5115378;27;20039;-73
2022/08/12 12:30:59;;;;;;;14.55;7.45;;;;;;;21.25;100.00;100412.09;5109494;27;20048;-73
2022/08/12 12:33:27;;;;;;;11.05;6.82;;;;;;;21.28;100.00;100409.94;5114409;27;20043;-77
2022/08/12 12:35:54;;;;;;;13.00;7.50;;;;;;;21.27;100.00;100404.56;5114487;27;20039;-83
2022/08/12 12:38:23;;;;;;;11.77;7.30;;;;;;;21.27;100.00;100407.31;5110750;27;20432;-73
2022/08/12 12:40:51;;;;;;;18.20;10.75;;;;;;;21.27;100.00;100408.19;5114864;27;20040;-73
2022/08/12 12:43:19;;;;;;;20.40;10.80;;;;;;;21.23;100.00;100411.38;5112199;28;20047;-73
2022/08/12 12:45:47;;;;;;;13.30;7.30;;;;;;;21.22;100.00;100406.88;5115271;27;20334;-73
2022/08/12 12:48:16;;;;;;;11.60;7.40;;;;;;;21.21;100.00;100402.41;5112604;27;20055;-73
2022/08/12 12:50:45;;;;;;;13.02;8.00;;;;;;;21.11;100.00;100410.63;5112098;27;20134;-73
2022/08/12 12:53:20;;;;;;;12.43;7.68;;;;;;;21.08;100.00;100410.91;5111593;28;20561;-72
2022/08/12 12:55:49;;;;;;;12.40;7.80;;;;;;;21.10;100.00;100420.75;5115572;27;20484;-81
2022/08/12 12:58:17;;;;;;;17.40;8.50;;;;;;;20.97;100.00;100428.34;5112431;28;20043;-76
2022/08/12 13:00:44;;;;;;;17.85;11.50;;;;;;;20.94;100.00;100436.88;5110244;28;20040;-79
2022/08/12 13:03:17;;;;;;;52.10;29.75;;;;;;;21.02;100.00;100433.44;5114561;28;20047;-75
2022/08/12 13:05:44;;;;;;;50.40;27.20;;;;;;;20.91;100.00;100437.16;5111967;27;20042;-80